This is the latest recevied weather packets stored in our database for station/object WX4SGA. If no packets are shown the sender has not sent any weather packets the latest 10 day(s).
| Time | Temp. | Humidity | Pressure | Rain* | Wind** | Luminosity | Snow |
|---|---|---|---|---|---|---|---|
| 1777470073 | 21.11° C | 84% | 1015.6 hPa | 0 mm | - | 171 W/m² | - |
| 1777469769 | 21.11° C | 84% | 1015.6 hPa | 0 mm | - | 142 W/m² | - |
| 1777469465 | 21.11° C | 84% | 1015.9 hPa | 0 mm | - | 128 W/m² | - |
| 1777469159 | 21.11° C | 84% | 1015.9 hPa | 0 mm | - | 136 W/m² | - |
| 1777468854 | 20.56° C | 85% | 1015.9 hPa | 0 mm | - | 139 W/m² | - |
| 1777468551 | 20.56° C | 85% | 1015.9 hPa | 0 mm | - | 139 W/m² | - |
| 1777468248 | 20.56° C | 86% | 1015.9 hPa | 0 mm | - | 142 W/m² | - |
| 1777467944 | 20.56° C | 87% | 1015.9 hPa | 0 mm | - | 145 W/m² | - |
| 1777467639 | 20.56° C | 86% | 1015.9 hPa | 0 mm | - | 144 W/m² | - |
| 1777467334 | 20.56° C | 86% | 1015.9 hPa | 0 mm | - | 148 W/m² | - |
| 1777467031 | 20° C | 87% | 1015.9 hPa | 0 mm | - | 144 W/m² | - |
| 1777466729 | 20° C | 89% | 1015.9 hPa | 0 mm | - | 134 W/m² | - |
| 1777466426 | 19.44° C | 90% | 1015.9 hPa | 0 mm | - | 113 W/m² | - |
| 1777466121 | 19.44° C | 89% | 1016.3 hPa | 0 mm | - | 98 W/m² | - |
| 1777465819 | 19.44° C | 90% | 1016.3 hPa | 0 mm | - | 76 W/m² | - |
| 1777465514 | 18.89° C | 90% | 1015.6 hPa | 0 mm | - | 41 W/m² | - |
| 1777465209 | 19.44° C | 91% | 1015.6 hPa | 0 mm | - | 28 W/m² | - |
| 1777464904 | 19.44° C | 90% | 1016.3 hPa | 0 mm | - | 42 W/m² | - |
| 1777464599 | 18.89° C | 91% | 1016.6 hPa | 0 mm | - | 52 W/m² | - |
| 1777464295 | 18.89° C | 91% | 1016.3 hPa | 0 mm | - | 43 W/m² | - |
| 1777463991 | 18.89° C | 91% | 1016.3 hPa | 0 mm | - | 35 W/m² | - |
| 1777463686 | 18.89° C | 91% | 1016.3 hPa | 0 mm | - | 14 W/m² | - |
| 1777463381 | 18.89° C | 91% | 1016.3 hPa | 0 mm | - | 6 W/m² | - |
| 1777463078 | 18.89° C | 90% | 1016.3 hPa | 0 mm | - | 6 W/m² | - |
| 1777462773 | 18.89° C | 89% | 1016.6 hPa | 0 mm | - | 6 W/m² | - |
* Rain latest hour (hover to see other rain measurements)
** Current wind speed in m/s (hover to see current wind gust speed)